createdAt,value
2018-10-16T00:01:49.608Z,3.42
2018-10-16T00:04:17.925Z,3.37
2018-10-16T00:06:47.354Z,3.58
2018-10-16T00:09:15.685Z,3.45
2018-10-16T00:11:55.365Z,3.35
2018-10-16T00:14:23.713Z,3.20
2018-10-16T00:16:52.342Z,3.30
2018-10-16T00:19:20.627Z,3.50
2018-10-16T00:21:50.083Z,3.08
2018-10-16T00:24:18.306Z,3.20
2018-10-16T00:26:46.681Z,3.17
2018-10-16T00:29:15.059Z,3.10
2018-10-16T00:31:43.426Z,3.10
2018-10-16T00:34:11.658Z,3.22
2018-10-16T00:36:40.465Z,2.98
2018-10-16T00:39:12.171Z,3.30
2018-10-16T00:41:41.479Z,3.02
2018-10-16T00:44:11.081Z,3.02
2018-10-16T00:46:40.695Z,3.08
2018-10-16T00:49:09.051Z,3.20
2018-10-16T00:51:38.970Z,3.30
2018-10-16T00:54:07.264Z,3.15
2018-10-16T00:56:35.630Z,3.12
2018-10-16T00:59:03.909Z,2.95
2018-10-16T01:01:33.990Z,3.02
2018-10-16T01:04:03.448Z,3.40
2018-10-16T01:06:32.631Z,2.83
2018-10-16T01:09:01.579Z,3.15
2018-10-16T01:11:29.891Z,2.80
2018-10-16T01:13:59.053Z,2.87
2018-10-16T01:16:27.355Z,2.85
2018-10-16T01:18:55.584Z,2.98
2018-10-16T01:21:24.090Z,3.22
2018-10-16T01:23:52.336Z,2.98
2018-10-16T01:26:20.657Z,3.20
2018-10-16T01:28:48.905Z,3.22
2018-10-16T01:31:17.203Z,3.17
2018-10-16T01:33:45.518Z,2.92
2018-10-16T01:36:14.163Z,3.15
2018-10-16T01:38:42.429Z,2.75
2018-10-16T01:41:11.070Z,2.98
2018-10-16T01:43:40.526Z,3.17
2018-10-16T01:46:09.467Z,3.08
2018-10-16T01:48:38.398Z,3.10
2018-10-16T01:51:07.175Z,3.12
2018-10-16T01:53:35.574Z,3.30
2018-10-16T01:56:04.204Z,3.00
2018-10-16T01:58:32.527Z,2.98
2018-10-16T02:01:00.778Z,3.15
2018-10-16T02:03:33.117Z,3.35
2018-10-16T02:06:01.324Z,3.15
2018-10-16T02:08:29.645Z,3.12
2018-10-16T02:10:58.025Z,3.30
2018-10-16T02:13:26.246Z,3.12
2018-10-16T02:15:54.478Z,2.90
2018-10-16T02:18:23.059Z,2.87
2018-10-16T02:20:51.358Z,3.20
2018-10-16T02:23:19.587Z,3.10
2018-10-16T02:25:48.538Z,3.10
2018-10-16T02:28:16.770Z,3.10
2018-10-16T02:30:45.001Z,3.00
2018-10-16T02:33:13.577Z,3.15
2018-10-16T02:35:41.808Z,3.00
2018-10-16T02:38:10.058Z,3.10
2018-10-16T02:40:38.339Z,2.83
2018-10-16T02:43:06.575Z,3.17
2018-10-16T02:45:34.793Z,3.40
2018-10-16T02:48:03.817Z,3.35
2018-10-16T02:50:32.133Z,3.00
2018-10-16T02:53:00.357Z,2.85
2018-10-16T02:55:28.650Z,2.70
2018-10-16T02:57:56.884Z,2.80
2018-10-16T03:00:25.130Z,2.92
2018-10-16T03:02:53.789Z,2.98
2018-10-16T03:05:22.838Z,3.27
2018-10-16T03:07:51.148Z,2.90
2018-10-16T03:10:19.954Z,2.80
2018-10-16T03:12:48.211Z,2.72
2018-10-16T03:15:16.423Z,2.70
2018-10-16T03:17:44.846Z,2.90
2018-10-16T03:20:13.089Z,2.67
2018-10-16T03:22:41.470Z,3.00
2018-10-16T03:25:11.887Z,2.87
2018-10-16T03:27:40.484Z,2.67
2018-10-16T03:30:10.402Z,2.70
2018-10-16T03:32:39.054Z,2.80
2018-10-16T03:35:08.499Z,3.00
2018-10-16T03:37:37.541Z,2.40
2018-10-16T03:40:05.822Z,2.90
2018-10-16T03:42:34.073Z,2.55
2018-10-16T03:45:02.854Z,2.60
2018-10-16T03:47:31.218Z,2.98
2018-10-16T03:49:59.475Z,2.58
2018-10-16T03:52:28.131Z,2.52
2018-10-16T03:54:56.361Z,3.00
2018-10-16T03:57:24.708Z,2.62
2018-10-16T03:59:53.268Z,2.50
2018-10-16T04:02:21.487Z,2.65
2018-10-16T04:04:49.738Z,3.05
2018-10-16T04:07:19.322Z,2.95
2018-10-16T04:09:47.673Z,3.02
2018-10-16T04:12:15.926Z,2.58
2018-10-16T04:14:44.466Z,2.40
2018-10-16T04:17:12.703Z,2.62
2018-10-16T04:19:40.934Z,2.90
2018-10-16T04:22:09.472Z,2.75
2018-10-16T04:24:37.708Z,2.65
2018-10-16T04:27:06.046Z,2.83
2018-10-16T04:29:34.736Z,2.62
2018-10-16T04:32:03.035Z,2.92
2018-10-16T04:34:31.271Z,2.75
2018-10-16T04:36:59.975Z,2.72
2018-10-16T04:39:28.202Z,2.58
2018-10-16T04:41:56.625Z,2.55
2018-10-16T04:44:25.530Z,2.95
2018-10-16T04:46:53.827Z,2.67
2018-10-16T04:49:22.074Z,2.80
2018-10-16T04:51:50.659Z,3.10
2018-10-16T04:54:18.903Z,3.02
2018-10-16T04:56:47.214Z,3.00
2018-10-16T04:59:15.690Z,2.62
2018-10-16T05:01:44.087Z,2.50
2018-10-16T05:04:14.158Z,2.70
2018-10-16T05:06:42.690Z,2.65
2018-10-16T05:09:10.924Z,2.80
2018-10-16T05:11:45.076Z,3.00
2018-10-16T05:14:13.314Z,2.77
2018-10-16T05:16:41.555Z,2.62
2018-10-16T05:19:10.322Z,3.05
2018-10-16T05:21:38.726Z,3.22
2018-10-16T05:24:07.700Z,3.27
2018-10-16T05:26:36.483Z,2.87
2018-10-16T05:29:05.251Z,3.40
2018-10-16T05:31:33.631Z,2.98
2018-10-16T05:34:01.834Z,3.22
2018-10-16T05:36:30.075Z,2.98
2018-10-16T05:38:58.367Z,2.60
2018-10-16T05:41:26.854Z,2.95
2018-10-16T05:43:55.108Z,2.85
2018-10-16T05:46:23.444Z,2.90
2018-10-16T05:48:55.588Z,3.05
2018-10-16T05:51:23.902Z,2.80
2018-10-16T05:53:52.135Z,3.30
2018-10-16T05:56:20.389Z,2.80
2018-10-16T05:58:48.648Z,3.05
2018-10-16T06:01:17.058Z,2.77
2018-10-16T06:03:45.328Z,3.08
2018-10-16T06:06:14.149Z,3.22
2018-10-16T06:08:43.511Z,2.80
2018-10-16T06:11:11.748Z,3.22
2018-10-16T06:13:39.990Z,2.85
2018-10-16T06:16:08.629Z,2.70
2018-10-16T06:18:36.944Z,2.83
2018-10-16T06:21:05.248Z,2.98
2018-10-16T06:23:34.011Z,2.95
2018-10-16T06:26:02.343Z,3.15
2018-10-16T06:28:30.592Z,2.85
2018-10-16T06:30:59.967Z,3.05
2018-10-16T06:33:29.641Z,3.30
2018-10-16T06:35:57.893Z,3.42
2018-10-16T06:38:26.231Z,3.55
2018-10-16T06:40:54.663Z,3.45
2018-10-16T06:43:22.889Z,3.70
2018-10-16T06:45:51.137Z,3.22
2018-10-16T06:48:19.567Z,3.30
2018-10-16T06:50:48.231Z,3.77
2018-10-16T06:53:16.602Z,3.30
2018-10-16T06:55:44.803Z,3.47
2018-10-16T06:58:13.572Z,3.00
2018-10-16T07:00:41.822Z,3.10
2018-10-16T07:03:10.191Z,3.05
2018-10-16T07:05:39.239Z,3.42
2018-10-16T07:08:08.942Z,3.17
2018-10-16T07:10:37.285Z,3.10
2018-10-16T07:13:06.003Z,3.17
2018-10-16T07:15:34.318Z,3.40
2018-10-16T07:18:02.597Z,3.55
2018-10-16T07:20:31.441Z,3.17
2018-10-16T07:22:59.718Z,3.50
2018-10-16T07:25:27.954Z,3.80
2018-10-16T07:27:58.129Z,3.08
2018-10-16T07:30:26.434Z,3.27
2018-10-16T07:32:54.756Z,3.33
2018-10-16T07:35:23.323Z,3.20
2018-10-16T07:37:51.741Z,3.77
2018-10-16T07:40:19.873Z,3.50
2018-10-16T07:42:48.207Z,3.30
2018-10-16T07:45:16.531Z,3.70
2018-10-16T07:47:44.774Z,3.55
2018-10-16T07:50:13.939Z,3.75
2018-10-16T07:52:42.240Z,3.75
2018-10-16T07:55:12.292Z,3.80
2018-10-16T07:57:43.687Z,4.15
2018-10-16T08:00:12.726Z,4.60
2018-10-16T08:02:42.165Z,4.62
2018-10-16T08:05:12.094Z,4.62
2018-10-16T08:07:41.051Z,5.08
2018-10-16T08:10:11.601Z,4.40
2018-10-16T08:12:39.877Z,4.25
2018-10-16T08:15:09.041Z,4.40
2018-10-16T08:17:37.370Z,4.10
2018-10-16T08:20:05.586Z,3.90
2018-10-16T08:22:34.743Z,3.90
2018-10-16T08:25:03.161Z,3.92
2018-10-16T08:27:31.406Z,4.70
2018-10-16T08:30:00.401Z,4.25
2018-10-16T08:32:28.538Z,4.35
2018-10-16T08:34:57.192Z,4.30
2018-10-16T08:37:37.920Z,4.30
2018-10-16T08:40:06.464Z,4.78
2018-10-16T08:43:23.714Z,4.80
2018-10-16T08:46:03.122Z,5.40
2018-10-16T08:48:43.747Z,4.83
2018-10-16T08:51:23.284Z,4.70
2018-10-16T08:53:52.371Z,4.90
2018-10-16T08:56:20.616Z,4.83
2018-10-16T08:58:48.930Z,4.35
2018-10-16T09:01:17.547Z,4.85
2018-10-16T09:03:45.830Z,4.45
2018-10-16T09:06:14.243Z,4.62
2018-10-16T09:08:43.130Z,4.37
2018-10-16T09:11:12.238Z,4.58
2018-10-16T09:13:40.569Z,4.53
2018-10-16T09:16:09.739Z,4.67
2018-10-16T09:18:38.299Z,4.15
2018-10-16T09:21:06.740Z,4.28
2018-10-16T09:23:35.905Z,4.55
2018-10-16T09:26:04.175Z,4.35
2018-10-16T09:28:32.495Z,4.22
2018-10-16T09:31:00.869Z,4.47
2018-10-16T09:33:29.119Z,4.22
2018-10-16T09:35:57.451Z,4.25
2018-10-16T09:38:27.507Z,4.33
2018-10-16T09:40:55.871Z,4.70
2018-10-16T09:43:24.152Z,4.37
2018-10-16T09:45:53.250Z,4.10
2018-10-16T09:48:21.591Z,4.20
2018-10-16T09:50:49.828Z,4.30
2018-10-16T09:53:18.168Z,4.28
2018-10-16T09:55:46.495Z,4.20
2018-10-16T09:58:14.747Z,4.85
2018-10-16T10:00:49.139Z,7.12
2018-10-16T10:03:17.341Z,10.03
2018-10-16T10:05:45.594Z,10.03
2018-10-16T10:08:13.871Z,10.72
2018-10-16T10:10:42.135Z,10.93
2018-10-16T10:13:11.067Z,10.60
2018-10-16T10:15:39.966Z,10.48
2018-10-16T10:18:08.278Z,9.50
2018-10-16T10:20:36.913Z,9.63
2018-10-16T10:23:05.615Z,10.18
2018-10-16T10:25:33.972Z,10.85
2018-10-16T10:28:02.215Z,9.80
2018-10-16T10:30:32.072Z,9.65
2018-10-16T10:33:00.339Z,9.78
2018-10-16T10:35:28.737Z,9.70
2018-10-16T10:37:57.535Z,8.65
2018-10-16T10:40:25.858Z,9.85
2018-10-16T10:42:54.314Z,9.43
2018-10-16T10:45:23.370Z,9.80
2018-10-16T10:47:51.692Z,8.83
2018-10-16T10:50:20.196Z,8.88
2018-10-16T10:52:48.815Z,9.28
2018-10-16T10:55:17.061Z,9.30
2018-10-16T10:57:45.479Z,8.60
2018-10-16T11:00:15.106Z,8.33
2018-10-16T11:02:45.371Z,8.45
2018-10-16T11:05:15.743Z,9.00
2018-10-16T11:07:44.068Z,8.50
2018-10-16T11:10:13.417Z,7.80
2018-10-16T11:12:42.912Z,7.87
2018-10-16T11:15:11.171Z,7.10
2018-10-16T11:17:39.883Z,6.80
2018-10-16T11:20:10.415Z,7.50
2018-10-16T11:22:38.714Z,6.60
2018-10-16T11:25:08.043Z,6.42
2018-10-16T11:27:36.274Z,6.35
2018-10-16T11:30:06.062Z,6.67
2018-10-16T11:32:34.662Z,6.53
2018-10-16T11:35:02.913Z,5.95
2018-10-16T11:37:31.330Z,6.17
2018-10-16T11:39:59.994Z,5.80
2018-10-16T11:42:28.235Z,7.00
2018-10-16T11:44:56.479Z,6.90
2018-10-16T11:47:25.551Z,6.42
2018-10-16T11:49:53.895Z,6.22
2018-10-16T11:52:22.275Z,6.45
2018-10-16T11:54:50.592Z,6.58
2018-10-16T11:57:19.067Z,5.67
2018-10-16T11:59:47.293Z,5.92
2018-10-16T12:02:15.984Z,5.20
2018-10-16T12:04:44.166Z,5.30
2018-10-16T12:07:13.026Z,4.90
2018-10-16T12:09:42.191Z,5.83
2018-10-16T12:12:10.443Z,5.92
2018-10-16T12:14:38.682Z,5.05
2018-10-16T12:17:13.068Z,4.95
2018-10-16T12:19:47.689Z,4.87
2018-10-16T12:22:16.379Z,4.87
2018-10-16T12:24:44.621Z,4.50
2018-10-16T12:27:13.130Z,4.90
2018-10-16T12:29:41.381Z,4.97
2018-10-16T12:32:09.670Z,5.05
2018-10-16T12:34:37.850Z,4.70
2018-10-16T12:37:06.719Z,4.40
2018-10-16T12:39:35.191Z,4.50
2018-10-16T12:42:03.440Z,4.75
2018-10-16T12:44:32.212Z,4.45
2018-10-16T12:47:00.521Z,4.90
2018-10-16T12:49:28.912Z,4.67
2018-10-16T12:51:57.448Z,4.40
2018-10-16T12:54:25.708Z,4.35
2018-10-16T12:56:54.127Z,4.08
2018-10-16T12:59:22.561Z,4.00
2018-10-16T13:01:51.285Z,4.12
2018-10-16T13:04:19.503Z,4.37
2018-10-16T13:06:48.014Z,4.37
2018-10-16T13:09:17.925Z,4.37
2018-10-16T13:11:46.176Z,4.30
2018-10-16T13:14:14.523Z,3.83
2018-10-16T13:16:42.811Z,4.42
2018-10-16T13:19:11.758Z,3.90
2018-10-16T13:21:40.030Z,4.50
2018-10-16T13:24:08.438Z,4.22
2018-10-16T13:26:37.013Z,4.53
2018-10-16T13:29:05.571Z,4.62
2018-10-16T13:31:33.903Z,4.78
2018-10-16T13:34:02.825Z,4.22
2018-10-16T13:36:31.456Z,4.50
2018-10-16T13:38:59.771Z,4.40
2018-10-16T13:41:28.600Z,4.12
2018-10-16T13:43:56.937Z,4.20
2018-10-16T13:46:25.185Z,4.35
2018-10-16T13:48:53.755Z,4.50
2018-10-16T13:51:22.030Z,3.90
2018-10-16T13:53:50.270Z,4.28
2018-10-16T13:56:18.985Z,4.45
2018-10-16T13:58:47.330Z,4.55
2018-10-16T14:01:15.565Z,4.00
2018-10-16T14:03:47.820Z,4.20
2018-10-16T14:06:16.079Z,4.37
2018-10-16T14:08:44.343Z,4.50
2018-10-16T14:11:13.159Z,4.62
2018-10-16T14:13:41.429Z,4.15
2018-10-16T14:16:09.765Z,4.20
2018-10-16T14:18:38.615Z,4.55
2018-10-16T14:21:06.885Z,4.22
2018-10-16T14:23:35.134Z,4.33
2018-10-16T14:26:03.800Z,5.05
2018-10-16T14:28:31.998Z,4.35
2018-10-16T14:31:00.369Z,4.40
2018-10-16T14:33:28.853Z,4.62
2018-10-16T14:35:57.175Z,4.20
2018-10-16T14:38:25.580Z,4.05
2018-10-16T14:40:54.523Z,3.98
2018-10-16T14:43:22.896Z,4.45
2018-10-16T14:45:51.170Z,4.58
2018-10-16T14:48:19.780Z,4.30
2018-10-16T14:50:48.058Z,4.42
2018-10-16T14:53:16.314Z,4.37
2018-10-16T14:55:45.010Z,4.37
2018-10-16T14:58:14.367Z,4.70
2018-10-16T15:00:42.574Z,4.58
2018-10-16T15:03:11.756Z,4.53
2018-10-16T15:05:40.659Z,4.35
2018-10-16T15:08:09.009Z,3.92
2018-10-16T15:10:37.280Z,4.50
2018-10-16T15:13:05.895Z,4.55
2018-10-16T15:15:34.167Z,4.03
2018-10-16T15:18:02.775Z,4.05
2018-10-16T15:20:31.035Z,4.20
2018-10-16T15:22:59.305Z,4.67
2018-10-16T15:25:28.334Z,3.98
2018-10-16T15:27:56.795Z,4.45
2018-10-16T15:30:24.991Z,4.42
2018-10-16T15:32:53.506Z,4.78
2018-10-16T15:35:22.117Z,4.65
2018-10-16T15:37:50.400Z,4.42
2018-10-16T15:40:18.843Z,5.00
2018-10-16T15:42:47.096Z,4.25
2018-10-16T15:45:15.376Z,5.25
2018-10-16T15:47:44.867Z,4.22
2018-10-16T15:50:13.345Z,4.55
2018-10-16T15:52:41.561Z,5.05
2018-10-16T15:55:11.229Z,4.40
2018-10-16T15:57:39.950Z,4.97
2018-10-16T16:00:12.551Z,4.25
2018-10-16T16:02:40.893Z,4.40
2018-10-16T16:05:09.158Z,4.75
2018-10-16T16:07:38.442Z,4.70
2018-10-16T16:10:08.433Z,4.78
2018-10-16T16:12:36.979Z,4.60
2018-10-16T16:15:06.231Z,4.22
2018-10-16T16:17:34.524Z,4.58
2018-10-16T16:20:02.940Z,4.33
2018-10-16T16:22:31.817Z,4.65
2018-10-16T16:25:00.051Z,4.60
2018-10-16T16:27:28.348Z,4.67
2018-10-16T16:29:57.810Z,4.25
2018-10-16T16:32:26.146Z,4.47
2018-10-16T16:34:54.446Z,4.20
2018-10-16T16:37:23.099Z,3.87
2018-10-16T16:39:51.333Z,4.50
2018-10-16T16:42:19.550Z,4.62
2018-10-16T16:44:48.441Z,4.33
2018-10-16T16:47:16.695Z,4.05
2018-10-16T16:49:44.972Z,4.75
2018-10-16T16:52:13.712Z,4.22
2018-10-16T16:54:41.911Z,4.58
2018-10-16T16:57:10.248Z,4.53
2018-10-16T16:59:38.877Z,4.60
2018-10-16T17:02:07.258Z,4.62
2018-10-16T17:04:37.678Z,4.83
2018-10-16T17:07:06.029Z,4.83
2018-10-16T17:09:34.854Z,5.00
2018-10-16T17:12:03.133Z,5.20
2018-10-16T17:14:31.386Z,5.17
2018-10-16T17:17:00.441Z,4.97
2018-10-16T17:19:28.716Z,4.47
2018-10-16T17:21:57.026Z,5.00
2018-10-16T17:24:25.894Z,5.08
2018-10-16T17:26:54.170Z,4.70
2018-10-16T17:29:22.549Z,4.53
2018-10-16T17:31:51.252Z,5.22
2018-10-16T17:34:19.631Z,4.97
2018-10-16T17:36:48.012Z,4.80
2018-10-16T17:39:16.892Z,5.20
2018-10-16T17:41:45.146Z,4.55
2018-10-16T17:44:13.486Z,5.08
2018-10-16T17:46:42.618Z,4.47
2018-10-16T17:49:10.903Z,4.55
2018-10-16T17:51:39.266Z,4.40
2018-10-16T17:54:07.970Z,3.87
2018-10-16T17:56:36.456Z,4.75
2018-10-16T17:59:04.758Z,4.65
2018-10-16T18:01:33.319Z,4.55
2018-10-16T18:04:01.762Z,4.55
2018-10-16T18:06:30.132Z,4.65
2018-10-16T18:08:59.659Z,4.72
2018-10-16T18:11:29.357Z,4.03
2018-10-16T18:13:57.711Z,4.70
2018-10-16T18:16:26.480Z,4.78
2018-10-16T18:18:54.739Z,4.50
2018-10-16T18:21:25.053Z,4.65
2018-10-16T18:23:53.341Z,4.37
2018-10-16T18:26:21.657Z,4.62
2018-10-16T18:28:51.584Z,4.35
2018-10-16T18:31:19.876Z,4.22
2018-10-16T18:33:48.187Z,4.22
2018-10-16T18:36:16.672Z,4.17
2018-10-16T18:38:45.015Z,4.15
2018-10-16T18:41:13.351Z,4.30
2018-10-16T18:43:41.914Z,4.33
2018-10-16T18:46:10.173Z,4.83
2018-10-16T18:50:08.581Z,4.60
2018-10-16T18:52:37.261Z,4.37
2018-10-16T18:55:07.338Z,4.28
2018-10-16T18:57:36.123Z,4.05
2018-10-16T19:00:04.625Z,4.15
2018-10-16T19:02:32.911Z,3.90
2018-10-16T19:05:01.744Z,3.83
2018-10-16T19:07:30.045Z,4.53
2018-10-16T19:09:58.404Z,5.03
2018-10-16T19:12:29.119Z,17.50
2018-10-16T19:14:57.415Z,13.38
2018-10-16T19:17:25.716Z,17.62
2018-10-16T19:19:54.391Z,22.73
2018-10-16T19:22:22.696Z,15.58
2018-10-16T19:24:51.277Z,13.38
2018-10-16T19:27:19.919Z,12.85
2018-10-16T19:29:48.156Z,12.80
2018-10-16T19:32:16.604Z,13.13
2018-10-16T19:34:45.191Z,22.25
2018-10-16T19:37:13.461Z,20.10
2018-10-16T19:39:41.722Z,21.07
2018-10-16T19:42:10.595Z,18.32
2018-10-16T19:44:39.079Z,16.15
2018-10-16T19:47:07.470Z,18.85
2018-10-16T19:49:35.958Z,17.57
2018-10-16T19:52:04.352Z,15.78
2018-10-16T19:54:32.610Z,13.58
2018-10-16T19:57:02.567Z,13.32
2018-10-16T19:59:30.836Z,11.43
2018-10-16T20:01:59.203Z,11.57
2018-10-16T20:04:29.074Z,9.80
2018-10-16T20:06:57.426Z,10.23
2018-10-16T20:09:25.787Z,9.48
2018-10-16T20:11:54.233Z,8.78
2018-10-16T20:14:22.564Z,8.23
2018-10-16T20:16:51.124Z,8.08
2018-10-16T20:19:19.559Z,8.25
2018-10-16T20:21:48.264Z,7.50
2018-10-16T20:24:16.555Z,8.75
2018-10-16T20:26:45.715Z,8.20
2018-10-16T20:29:14.156Z,15.83
2018-10-16T20:31:42.491Z,10.23
2018-10-16T20:34:11.071Z,8.80
2018-10-16T20:36:39.366Z,8.48
2018-10-16T20:39:12.826Z,8.25
2018-10-16T20:41:41.555Z,6.80
2018-10-16T20:44:10.043Z,7.65
2018-10-16T20:46:38.371Z,6.70
2018-10-16T20:49:06.819Z,6.15
2018-10-16T20:51:35.755Z,5.83
2018-10-16T20:54:04.359Z,5.25
2018-10-16T20:56:33.078Z,5.70
2018-10-16T20:59:01.459Z,5.70
2018-10-16T21:01:30.635Z,5.78
2018-10-16T21:03:58.885Z,5.62
2018-10-16T21:06:28.477Z,5.55
2018-10-16T21:08:56.562Z,5.67
2018-10-16T21:11:24.827Z,5.28
2018-10-16T21:13:53.831Z,4.80
2018-10-16T21:16:22.174Z,5.00
2018-10-16T21:18:50.416Z,4.90
2018-10-16T21:21:18.972Z,4.95
2018-10-16T21:23:47.291Z,4.55
2018-10-16T21:26:15.578Z,5.08
2018-10-16T21:28:43.902Z,4.78
2018-10-16T21:31:12.158Z,4.67
2018-10-16T21:33:40.372Z,4.58
2018-10-16T21:36:09.621Z,5.00
2018-10-16T21:38:37.953Z,5.25
2018-10-16T21:41:06.237Z,4.60
2018-10-16T21:43:35.090Z,4.58
2018-10-16T21:46:03.448Z,4.40
2018-10-16T21:48:31.839Z,4.75
2018-10-16T21:51:00.439Z,4.50
2018-10-16T21:53:28.847Z,4.58
2018-10-16T21:55:57.091Z,4.40
2018-10-16T21:58:26.496Z,4.17
2018-10-16T22:01:00.230Z,4.70
2018-10-16T22:03:29.066Z,4.75
2018-10-16T22:05:57.383Z,4.10
2018-10-16T22:08:28.318Z,4.35
2018-10-16T22:10:57.108Z,4.15
2018-10-16T22:13:25.572Z,4.37
2018-10-16T22:15:53.878Z,4.05
2018-10-16T22:18:22.283Z,4.20
2018-10-16T22:20:50.598Z,4.00
2018-10-16T22:23:18.913Z,4.00
2018-10-16T22:25:47.467Z,4.22
2018-10-16T22:28:15.788Z,4.08
2018-10-16T22:30:44.110Z,4.28
2018-10-16T22:33:13.024Z,4.12
2018-10-16T22:35:41.422Z,3.42
2018-10-16T22:38:10.031Z,3.95
2018-10-16T22:40:38.775Z,4.00
2018-10-16T22:43:07.139Z,4.58
2018-10-16T22:45:35.570Z,4.30
2018-10-16T22:48:04.309Z,3.90
2018-10-16T22:50:32.545Z,4.22
2018-10-16T22:53:00.812Z,3.90
2018-10-16T22:55:29.757Z,4.22
2018-10-16T22:57:58.096Z,4.00
2018-10-16T23:00:26.351Z,3.85
2018-10-16T23:02:54.802Z,4.00
2018-10-16T23:05:24.297Z,3.98
2018-10-16T23:07:52.547Z,4.10
2018-10-16T23:10:21.469Z,3.98
2018-10-16T23:12:55.159Z,4.00
2018-10-16T23:15:23.659Z,3.83
2018-10-16T23:17:51.903Z,3.55
2018-10-16T23:20:20.361Z,3.75
2018-10-16T23:22:49.919Z,3.80
2018-10-16T23:25:18.403Z,3.40
2018-10-16T23:27:46.510Z,4.20
2018-10-16T23:30:14.964Z,3.33
2018-10-16T23:32:43.263Z,3.75
2018-10-16T23:35:11.692Z,3.77
2018-10-16T23:37:40.302Z,3.58
2018-10-16T23:40:08.738Z,3.55
2018-10-16T23:42:37.080Z,3.67
2018-10-16T23:45:05.711Z,3.55
2018-10-16T23:47:34.050Z,3.72
2018-10-16T23:50:02.583Z,3.95
2018-10-16T23:52:31.505Z,3.83
2018-10-16T23:54:59.948Z,4.08
2018-10-16T23:57:28.155Z,3.95
2018-10-16T23:59:57.023Z,3.50
